Time;durP1;ratioP1;P1;durP2;ratioP2;P2;SDS_P1;SDS_P2;PMS_P1;PMS_P2;Temp;Humidity;BMP_temperature;BMP_pressure;BME280_temperature;BME280_humidity;BME280_pressure;Samples;Min_cycle;Max_cycle;Signal;HPM_P1;HPM_P2
2021/01/21 06:01:27;;;;;;;3.30;2.43;;;8.80;85.00;;;;;;5582639;23;20507;-71
2021/01/21 06:03:54;;;;;;;3.93;2.20;;;8.80;85.00;;;;;;4915326;29;20472;-71
2021/01/21 06:06:28;;;;;;;3.60;2.20;;;8.80;85.10;;;;;;4916283;29;20464;-72
2021/01/21 06:08:54;;;;;;;2.60;2.20;;;8.80;85.20;;;;;;4916239;29;20968;-71
2021/01/21 06:11:21;;;;;;;2.97;2.20;;;8.90;85.10;;;;;;4906166;29;20480;-71
2021/01/21 06:13:47;;;;;;;2.93;2.23;;;8.90;85.10;;;;;;4896477;29;20191;-70
2021/01/21 06:16:15;;;;;;;2.17;2.03;;;8.80;85.40;;;;;;4900848;29;20701;-72
2021/01/21 06:18:41;;;;;;;3.00;2.20;;;8.80;85.40;;;;;;4900605;29;20461;-73
2021/01/21 06:21:09;;;;;;;3.90;2.13;;;8.80;85.70;;;;;;4899364;29;20453;-71
2021/01/21 06:23:37;;;;;;;3.67;2.27;;;8.70;85.80;;;;;;4899280;29;20185;-72
2021/01/21 06:26:05;;;;;;;3.07;2.20;;;8.70;85.90;;;;;;4899436;29;20436;-72
2021/01/21 06:28:32;;;;;;;3.30;2.40;;;8.70;85.90;;;;;;4900526;29;20417;-72
2021/01/21 06:30:59;;;;;;;4.27;2.40;;;8.70;85.90;;;;;;4898993;29;20535;-70
2021/01/21 06:33:40;;;;;;;3.77;2.40;;;8.70;85.70;;;;;;4899096;29;20418;-71
2021/01/21 06:36:13;;;;;;;2.23;2.07;;;8.70;85.90;;;;;;4899472;29;20841;-72
2021/01/21 06:38:54;;;;;;;3.50;2.30;;;8.60;86.00;;;;;;4899004;29;20433;-72
2021/01/21 06:41:22;;;;;;;2.57;2.10;;;8.60;86.10;;;;;;4900237;29;20860;-71
2021/01/21 06:43:48;;;;;;;2.23;2.03;;;8.50;86.20;;;;;;4899004;29;20433;-72
2021/01/21 06:46:15;;;;;;;4.13;2.17;;;8.50;86.50;;;;;;4900393;29;20424;-71
2021/01/21 06:48:48;;;;;;;3.90;2.20;;;8.40;86.60;;;;;;4900221;29;20827;-72
2021/01/21 06:51:15;;;;;;;4.93;2.13;;;8.40;86.80;;;;;;4899963;29;20446;-71
2021/01/21 06:53:50;;;;;;;3.23;2.37;;;8.30;87.00;;;;;;4898797;29;20418;-72
2021/01/21 06:56:16;;;;;;;2.50;2.20;;;8.30;87.10;;;;;;4900198;29;20412;-71
2021/01/21 06:58:48;;;;;;;3.67;2.00;;;8.20;87.30;;;;;;4898622;29;20421;-71
2021/01/21 07:01:32;;;;;;;3.10;2.10;;;8.20;87.40;;;;;;4898135;29;20613;-72
2021/01/21 07:03:58;;;;;;;3.20;2.20;;;8.10;87.40;;;;;;4898942;29;20933;-72
2021/01/21 07:06:24;;;;;;;5.47;2.30;;;8.20;87.50;;;;;;4899922;29;20413;-71
2021/01/21 07:09:07;;;;;;;3.13;2.40;;;8.20;87.50;;;;;;4899665;29;20942;-72
2021/01/21 07:11:34;;;;;;;9.80;2.27;;;8.10;87.40;;;;;;4898314;29;20642;-72
2021/01/21 07:14:00;;;;;;;3.10;2.03;;;8.10;87.30;;;;;;4898515;29;20414;-71
2021/01/21 07:16:26;;;;;;;3.27;2.70;;;8.10;87.40;;;;;;4900379;29;20782;-71
2021/01/21 07:18:54;;;;;;;3.80;2.20;;;8.10;87.20;;;;;;4898668;29;20192;-71
2021/01/21 07:21:24;;;;;;;4.23;2.23;;;8.10;87.30;;;;;;4898038;29;20878;-72
2021/01/21 07:23:53;;;;;;;2.80;2.20;;;8.20;87.10;;;;;;4899457;29;20926;-72
2021/01/21 07:26:42;;;;;;;3.23;2.10;;;8.20;87.10;;;;;;4897504;29;20457;-72
2021/01/21 07:29:13;;;;;;;2.10;1.97;;;8.20;87.10;;;;;;4898206;29;20834;-72
2021/01/21 07:31:55;;;;;;;2.90;2.10;;;8.10;87.20;;;;;;4897903;29;20452;-72
2021/01/21 07:34:46;;;;;;;7.63;2.53;;;8.10;87.50;;;;;;4898087;29;20435;-73
2021/01/21 07:37:27;;;;;;;3.50;2.37;;;8.00;87.80;;;;;;4898236;29;20434;-73
2021/01/21 07:39:58;;;;;;;4.30;2.10;;;8.10;87.30;;;;;;4897576;29;20583;-73
2021/01/21 07:42:44;;;;;;;4.17;2.20;;;8.20;87.10;;;;;;4899352;29;20480;-71
2021/01/21 07:45:19;;;;;;;3.00;2.30;;;8.20;87.40;;;;;;4898919;29;20453;-72
2021/01/21 07:47:46;;;;;;;4.40;2.20;;;8.30;86.50;;;;;;4899290;29;20512;-72
2021/01/21 07:50:30;;;;;;;2.47;1.93;;;8.40;86.60;;;;;;4897623;29;20462;-72
2021/01/21 07:52:57;;;;;;;2.93;2.43;;;8.40;86.70;;;;;;4897745;29;20805;-73
2021/01/21 07:55:37;;;;;;;1.87;1.70;;;8.50;86.10;;;;;;4899003;29;20418;-72
2021/01/21 07:58:22;;;;;;;5.00;2.63;;;8.80;85.40;;;;;;4897687;29;20429;-72
2021/01/21 08:00:52;;;;;;;1.83;1.77;;;8.80;85.60;;;;;;4898481;29;20433;-72
2021/01/21 08:03:35;;;;;;;2.50;2.10;;;9.00;84.80;;;;;;4898939;29;20417;-71
2021/01/21 08:06:15;;;;;;;2.87;2.00;;;9.10;84.90;;;;;;4897302;29;20528;-72
2021/01/21 08:08:43;;;;;;;3.97;2.07;;;9.30;84.30;;;;;;4898620;29;20663;-71
2021/01/21 08:11:14;;;;;;;2.87;1.93;;;9.50;83.50;;;;;;4897021;29;20477;-72
2021/01/21 08:13:41;;;;;;;3.20;2.10;;;9.70;83.10;;;;;;4898005;29;20434;-74
2021/01/21 08:16:12;;;;;;;5.60;2.40;;;9.90;82.30;;;;;;4897486;29;20573;-72
2021/01/21 08:18:38;;;;;;;4.57;2.00;;;10.00;82.10;;;;;;4898633;29;20505;-71
2021/01/21 08:21:25;;;;;;;6.90;1.90;;;10.10;81.80;;;;;;4898389;29;20582;-72
2021/01/21 08:23:58;;;;;;;4.60;2.37;;;10.10;81.70;;;;;;4897085;29;20195;-71
2021/01/21 08:26:26;;;;;;;2.47;1.80;;;10.10;81.50;;;;;;4898388;29;20562;-70
2021/01/21 08:28:52;;;;;;;3.30;2.30;;;10.10;81.50;;;;;;4897086;29;20486;-71
2021/01/21 08:31:20;;;;;;;6.37;2.40;;;10.10;81.50;;;;;;4896906;29;20440;-71
2021/01/21 08:33:52;;;;;;;2.20;2.00;;;10.10;81.10;;;;;;4898452;29;20458;-72
2021/01/21 08:36:22;;;;;;;2.60;1.90;;;10.10;81.00;;;;;;4896870;29;20410;-70
2021/01/21 08:38:48;;;;;;;3.93;2.20;;;10.20;80.60;;;;;;4898337;29;20927;-72
2021/01/21 08:41:14;;;;;;;5.20;2.07;;;10.20;80.60;;;;;;4896657;29;20528;-72
2021/01/21 08:43:42;;;;;;;3.33;1.97;;;10.20;80.70;;;;;;4898128;29;20469;-72
2021/01/21 08:46:20;;;;;;;3.80;2.13;;;10.20;80.70;;;;;;4898026;29;20413;-70
2021/01/21 08:48:47;;;;;;;4.33;2.00;;;10.20;80.70;;;;;;4896906;29;20473;-71
2021/01/21 08:51:34;;;;;;;3.93;2.23;;;10.20;80.90;;;;;;4896440;29;21184;-71
2021/01/21 08:54:13;;;;;;;2.30;2.17;;;10.20;81.00;;;;;;4897720;29;20437;-72
2021/01/21 08:56:39;;;;;;;4.07;2.40;;;10.20;81.10;;;;;;4896798;29;20409;-70
2021/01/21 08:59:24;;;;;;;2.50;2.17;;;10.20;81.20;;;;;;4896527;29;20428;-72
2021/01/21 09:01:50;;;;;;;2.40;2.20;;;10.30;80.90;;;;;;4896318;29;20449;-73
2021/01/21 09:04:43;;;;;;;2.50;1.80;;;10.50;80.50;;;;;;4897756;29;20417;-82
2021/01/21 09:07:10;;;;;;;1.97;1.83;;;10.70;80.10;;;;;;4894064;29;20209;-71
2021/01/21 09:09:40;;;;;;;4.80;2.40;;;10.60;80.30;;;;;;4896439;29;20868;-70
2021/01/21 09:12:14;;;;;;;2.90;2.20;;;10.60;80.10;;;;;;4893934;29;20457;-75
2021/01/21 09:14:41;;;;;;;2.37;1.70;;;10.70;80.20;;;;;;4896758;29;20788;-74
2021/01/21 09:17:17;;;;;;;2.37;2.00;;;10.70;80.20;;;;;;4897232;29;20424;-73
2021/01/21 09:19:46;;;;;;;4.67;3.17;;;10.80;80.30;;;;;;4904039;29;20464;-82
2021/01/21 09:22:14;;;;;;;4.93;2.43;;;10.90;80.30;;;;;;4901562;29;20826;-70
2021/01/21 09:25:04;;;;;;;4.50;2.13;;;11.00;79.90;;;;;;4897749;29;20417;-74
2021/01/21 09:27:31;;;;;;;3.40;2.00;;;11.10;79.60;;;;;;4896999;29;20410;-72
2021/01/21 09:30:08;;;;;;;2.80;2.20;;;11.10;79.90;;;;;;4896506;29;20613;-73
2021/01/21 09:32:36;;;;;;;4.20;2.30;;;11.20;79.60;;;;;;4898215;29;20440;-73
2021/01/21 09:35:05;;;;;;;3.37;2.30;;;11.20;79.40;;;;;;4897772;29;20410;-73
2021/01/21 09:37:38;;;;;;;4.07;2.30;;;11.30;79.60;;;;;;4897624;29;20843;-71
2021/01/21 09:40:05;;;;;;;2.30;1.67;;;11.30;79.40;;;;;;4895852;29;20812;-70
2021/01/21 09:42:31;;;;;;;4.50;2.20;;;11.40;79.40;;;;;;4897356;29;20472;-70
2021/01/21 09:44:56;;;;;;;2.80;1.93;;;11.50;79.20;;;;;;4897165;29;20453;-71
2021/01/21 09:47:22;;;;;;;2.37;2.07;;;11.60;79.10;;;;;;4896408;29;20220;-70
2021/01/21 09:49:48;;;;;;;2.20;1.80;;;11.70;78.70;;;;;;4897883;29;20208;-70
2021/01/21 09:52:14;;;;;;;2.40;1.87;;;11.80;78.10;;;;;;4899414;29;20678;-71
2021/01/21 09:54:40;;;;;;;3.60;2.10;;;11.90;78.00;;;;;;4899855;29;20480;-70
2021/01/21 09:57:06;;;;;;;4.00;2.37;;;12.00;77.80;;;;;;4900083;29;20445;-70
2021/01/21 09:59:37;;;;;;;5.40;2.50;;;12.00;77.00;;;;;;4901348;29;20707;-84
2021/01/21 10:02:03;;;;;;;5.20;2.50;;;12.10;76.80;;;;;;4903251;29;20551;-79
2021/01/21 10:04:39;;;;;;;3.40;2.03;;;12.20;77.00;;;;;;4905474;29;20426;-79
2021/01/21 10:07:08;;;;;;;2.17;2.00;;;12.30;77.00;;;;;;4903783;29;20425;-80
2021/01/21 10:09:34;;;;;;;2.83;2.30;;;12.30;76.60;;;;;;4903885;29;20461;-78
2021/01/21 10:12:01;;;;;;;3.00;1.77;;;12.30;76.60;;;;;;4899006;29;20464;-71
2021/01/21 10:14:27;;;;;;;2.77;2.20;;;12.30;76.70;;;;;;4899448;29;20420;-71
2021/01/21 10:16:53;;;;;;;3.13;2.70;;;12.10;76.90;;;;;;4900761;29;20409;-71
2021/01/21 10:19:19;;;;;;;4.47;2.47;;;12.00;77.10;;;;;;4899618;29;20539;-69
2021/01/21 10:21:44;;;;;;;2.83;1.80;;;11.90;77.60;;;;;;4898613;29;20456;-69
2021/01/21 10:24:11;;;;;;;3.00;2.43;;;11.80;78.00;;;;;;4900260;29;20508;-81
2021/01/21 10:26:36;;;;;;;3.67;2.30;;;11.70;78.30;;;;;;4902466;29;20192;-85
2021/01/21 10:29:03;;;;;;;4.70;2.40;;;11.70;78.70;;;;;;4902853;29;20421;-86
2021/01/21 10:31:29;;;;;;;4.30;2.27;;;11.70;78.80;;;;;;4902180;29;20212;-81
2021/01/21 10:33:55;;;;;;;3.10;2.07;;;11.80;78.40;;;;;;4903367;29;20831;-70
2021/01/21 10:36:21;;;;;;;2.20;2.00;;;12.00;78.30;;;;;;4898626;29;20174;-71
2021/01/21 10:38:48;;;;;;;4.50;2.50;;;12.10;77.90;;;;;;4898652;29;20417;-77
2021/01/21 10:41:14;;;;;;;3.00;2.30;;;12.20;78.20;;;;;;4904967;29;20206;-81
2021/01/21 10:43:40;;;;;;;6.37;3.13;;;12.30;77.90;;;;;;4910418;29;20457;-82
2021/01/21 10:46:21;;;;;;;5.17;1.90;;;12.40;78.20;;;;;;4902995;29;20662;-79
2021/01/21 10:48:48;;;;;;;5.30;2.73;;;12.60;78.10;;;;;;4906352;29;20200;-80
2021/01/21 10:51:14;;;;;;;4.30;2.40;;;12.70;77.80;;;;;;4902697;29;20533;-71
2021/01/21 10:53:40;;;;;;;6.73;2.83;;;12.80;77.70;;;;;;4899881;29;20923;-70
2021/01/21 10:56:06;;;;;;;4.17;2.37;;;12.90;77.60;;;;;;4898751;29;20494;-69
2021/01/21 10:58:32;;;;;;;4.27;2.40;;;13.00;77.60;;;;;;4898489;29;20241;-76
2021/01/21 11:00:58;;;;;;;3.63;2.07;;;13.10;77.50;;;;;;4898346;29;20632;-82
2021/01/21 11:03:46;;;;;;;3.13;1.90;;;13.20;77.60;;;;;;4905810;29;20935;-85
2021/01/21 11:06:12;;;;;;;4.10;1.90;;;13.30;77.50;;;;;;4897577;29;20540;-71
2021/01/21 11:08:38;;;;;;;4.63;2.50;;;13.30;77.70;;;;;;4899720;29;20424;-71
2021/01/21 11:11:04;;;;;;;3.67;2.47;;;13.30;78.00;;;;;;4899356;29;20217;-71
2021/01/21 11:13:32;;;;;;;4.07;2.80;;;13.30;78.40;;;;;;4899925;29;20409;-71
2021/01/21 11:15:58;;;;;;;3.37;1.97;;;13.40;78.20;;;;;;4899989;29;20180;-71
2021/01/21 11:18:24;;;;;;;4.03;2.17;;;13.40;78.30;;;;;;4909310;29;20488;-70
2021/01/21 11:20:49;;;;;;;4.70;2.03;;;13.60;78.70;;;;;;4912536;29;20951;-73
2021/01/21 11:23:15;;;;;;;1.83;1.77;;;13.70;78.10;;;;;;4900071;29;20208;-70
2021/01/21 11:25:42;;;;;;;3.50;2.23;;;13.80;77.90;;;;;;4900804;29;20223;-80
2021/01/21 11:28:08;;;;;;;2.57;2.07;;;13.80;77.90;;;;;;4902046;29;20188;-77
2021/01/21 11:30:34;;;;;;;2.67;2.00;;;13.70;78.20;;;;;;4900503;29;20481;-80
2021/01/21 11:33:00;;;;;;;1.73;1.70;;;13.60;78.50;;;;;;4902347;29;20189;-79
2021/01/21 11:35:26;;;;;;;3.80;2.13;;;13.70;78.40;;;;;;4898706;29;20239;-78
2021/01/21 11:37:52;;;;;;;3.27;1.83;;;13.70;78.60;;;;;;4898474;29;20481;-70
2021/01/21 11:40:18;;;;;;;2.40;1.90;;;13.80;78.60;;;;;;4897807;29;20270;-71
2021/01/21 11:42:44;;;;;;;3.60;2.33;;;13.90;78.50;;;;;;4898115;29;20426;-71
2021/01/21 11:45:10;;;;;;;8.93;2.10;;;13.90;78.50;;;;;;4898182;29;20192;-70
2021/01/21 11:47:41;;;;;;;2.93;1.80;;;14.00;78.40;;;;;;4898100;29;20197;-71
2021/01/21 11:50:09;;;;;;;2.90;1.70;;;14.10;78.20;;;;;;4897674;29;20841;-71
2021/01/21 11:52:35;;;;;;;2.33;1.80;;;13.80;78.60;;;;;;4897501;29;20456;-70
2021/01/21 11:55:01;;;;;;;1.90;1.70;;;13.60;79.40;;;;;;4899368;29;20815;-71
2021/01/21 11:57:26;;;;;;;3.03;2.20;;;13.70;79.50;;;;;;4897803;29;20181;-70
2021/01/21 11:59:52;;;;;;;2.80;2.27;;;13.80;79.60;;;;;;4898909;29;20200;-71
2021/01/21 12:02:18;;;;;;;3.00;2.20;;;13.90;79.20;;;;;;4897485;29;20235;-71
2021/01/21 12:04:43;;;;;;;4.03;2.20;;;13.90;79.10;;;;;;4897726;29;20186;-71
2021/01/21 12:07:09;;;;;;;2.27;1.93;;;13.80;79.40;;;;;;4898093;29;20651;-71
2021/01/21 12:09:35;;;;;;;2.27;1.87;;;13.70;79.30;;;;;;4898949;29;20196;-71
2021/01/21 12:12:00;;;;;;;4.00;1.97;;;13.50;79.80;;;;;;4898042;29;20202;-71
2021/01/21 12:14:26;;;;;;;3.13;2.00;;;13.40;79.90;;;;;;4898936;29;20233;-71
2021/01/21 12:16:52;;;;;;;2.27;1.67;;;13.40;80.20;;;;;;4898907;29;20236;-70
2021/01/21 12:19:17;;;;;;;2.07;1.70;;;13.40;80.60;;;;;;4897492;29;20588;-71
2021/01/21 12:21:43;;;;;;;3.03;1.73;;;13.40;80.40;;;;;;4896969;29;20754;-70
2021/01/21 12:24:09;;;;;;;2.07;1.70;;;13.40;80.60;;;;;;4897554;29;20560;-70
2021/01/21 12:26:35;;;;;;;2.40;1.70;;;13.20;80.70;;;;;;4898981;29;20174;-71
2021/01/21 12:29:02;;;;;;;2.90;2.13;;;13.10;80.80;;;;;;4898432;29;20173;-71
2021/01/21 12:31:28;;;;;;;3.13;1.83;;;13.00;81.00;;;;;;4898414;29;20512;-72
2021/01/21 12:33:55;;;;;;;2.50;2.03;;;13.00;81.30;;;;;;4898770;29;20445;-72
2021/01/21 12:36:21;;;;;;;2.90;1.70;;;12.90;81.70;;;;;;4897345;29;20413;-72
2021/01/21 12:38:47;;;;;;;3.90;2.10;;;12.90;81.70;;;;;;4897196;29;20414;-70
2021/01/21 12:41:12;;;;;;;3.20;2.03;;;12.90;81.90;;;;;;4897046;29;20454;-73
2021/01/21 12:43:38;;;;;;;3.13;2.10;;;12.90;82.00;;;;;;4896970;29;20185;-72
2021/01/21 12:46:04;;;;;;;2.00;1.93;;;12.90;81.90;;;;;;4898544;29;20165;-72
2021/01/21 12:48:29;;;;;;;2.27;1.87;;;12.90;82.00;;;;;;4897310;29;20191;-75
2021/01/21 12:50:55;;;;;;;2.17;1.70;;;12.90;82.40;;;;;;4897739;29;20213;-69
2021/01/21 12:53:21;;;;;;;2.17;2.03;;;12.80;82.60;;;;;;4898139;29;20178;-69
2021/01/21 12:55:47;;;;;;;2.23;1.60;;;12.80;82.50;;;;;;4896952;29;20671;-69
2021/01/21 12:58:12;;;;;;;4.13;2.20;;;12.80;82.60;;;;;;4898086;29;20447;-70
2021/01/21 13:00:38;;;;;;;5.50;2.00;;;12.80;82.60;;;;;;4896805;29;20237;-79
2021/01/21 13:03:04;;;;;;;1.90;1.87;;;12.90;82.80;;;;;;4899836;29;20209;-81
2021/01/21 13:05:30;;;;;;;2.83;2.10;;;12.90;82.50;;;;;;4899553;29;20181;-80
2021/01/21 13:07:55;;;;;;;4.60;2.20;;;13.00;82.60;;;;;;4898302;29;20470;-69
2021/01/21 13:10:21;;;;;;;1.80;1.70;;;12.90;82.50;;;;;;4897490;29;20223;-69
2021/01/21 13:12:47;;;;;;;3.23;2.00;;;12.90;82.70;;;;;;4896676;29;20208;-70
2021/01/21 13:15:13;;;;;;;2.83;1.90;;;12.80;82.80;;;;;;4898191;29;20578;-69
2021/01/21 13:17:39;;;;;;;2.00;1.90;;;12.80;83.10;;;;;;4898675;29;20681;-84
2021/01/21 13:20:06;;;;;;;2.60;1.90;;;12.70;83.10;;;;;;4898663;29;20508;-73
2021/01/21 13:22:32;;;;;;;3.27;2.00;;;12.70;83.10;;;;;;4896694;29;20209;-71
2021/01/21 13:24:57;;;;;;;2.37;2.00;;;12.70;83.30;;;;;;4900398;29;20420;-73
2021/01/21 13:27:23;;;;;;;2.93;2.17;;;12.60;83.60;;;;;;4902163;29;20655;-74
2021/01/21 13:29:49;;;;;;;2.37;1.80;;;12.60;83.70;;;;;;4901968;29;20201;-73
2021/01/21 13:32:14;;;;;;;3.30;1.87;;;12.60;83.60;;;;;;4900538;29;20200;-73
2021/01/21 13:34:41;;;;;;;3.50;1.93;;;12.60;83.60;;;;;;4900800;29;20180;-73
2021/01/21 13:37:07;;;;;;;3.53;2.10;;;12.60;83.70;;;;;;4901703;29;20628;-71
2021/01/21 13:39:33;;;;;;;2.60;1.90;;;12.60;83.90;;;;;;4900567;29;20433;-73
2021/01/21 13:41:58;;;;;;;4.13;2.10;;;12.60;84.00;;;;;;4900751;29;20986;-80
2021/01/21 13:44:24;;;;;;;3.97;2.20;;;12.60;83.90;;;;;;4903191;29;20429;-79
2021/01/21 13:46:50;;;;;;;4.63;2.10;;;12.60;84.10;;;;;;4903232;29;20196;-83
2021/01/21 13:49:15;;;;;;;6.43;2.53;;;12.50;84.40;;;;;;4902927;29;20343;-70
2021/01/21 13:51:41;;;;;;;3.10;2.10;;;12.50;84.80;;;;;;4901113;29;20292;-70
2021/01/21 13:54:07;;;;;;;4.43;2.20;;;12.50;85.10;;;;;;4901251;29;20192;-71
2021/01/21 13:56:33;;;;;;;2.33;1.90;;;12.50;85.30;;;;;;4900423;29;20189;-73
2021/01/21 13:58:58;;;;;;;3.17;1.87;;;12.50;85.60;;;;;;4901071;29;20173;-77
2021/01/21 14:01:24;;;;;;;5.40;2.30;;;12.40;85.90;;;;;;4900180;29;20229;-76
2021/01/21 14:03:50;;;;;;;4.50;1.90;;;12.50;86.10;;;;;;4900439;29;20667;-76
2021/01/21 14:06:15;;;;;;;2.87;1.80;;;12.50;86.30;;;;;;4900654;29;20181;-87
2021/01/21 14:08:41;;;;;;;1.90;1.90;;;12.40;86.60;;;;;;4900445;29;20188;-72
2021/01/21 14:11:07;;;;;;;3.57;1.60;;;12.40;87.00;;;;;;4899248;29;20220;-72
2021/01/21 14:13:32;;;;;;;1.70;1.67;;;12.40;87.20;;;;;;4901091;29;20173;-72
2021/01/21 14:15:58;;;;;;;3.77;1.90;;;12.40;87.50;;;;;;4899839;29;20188;-71
2021/01/21 14:18:24;;;;;;;2.20;1.80;;;12.40;87.90;;;;;;4904567;29;20244;-80
2021/01/21 14:20:50;;;;;;;1.73;1.63;;;12.30;88.70;;;;;;4904050;29;20229;-81
2021/01/21 14:23:16;;;;;;;6.17;2.20;;;12.20;90.20;;;;;;4903966;29;20193;-80
2021/01/21 14:25:41;;;;;;;2.33;1.60;;;11.90;91.00;;;;;;4905620;29;20193;-81
2021/01/21 14:28:08;;;;;;;1.80;1.80;;;11.70;91.80;;;;;;4901923;29;20185;-72
2021/01/21 14:30:35;;;;;;;2.53;1.93;;;11.60;92.40;;;;;;4900532;29;20852;-71
2021/01/21 14:33:00;;;;;;;4.13;1.80;;;11.40;93.10;;;;;;4900174;29;20428;-72
2021/01/21 14:35:26;;;;;;;4.97;1.83;;;11.30;93.60;;;;;;4900432;29;20500;-71
2021/01/21 14:37:56;;;;;;;25.27;12.40;;;11.20;94.30;;;;;;4900894;29;20188;-72
2021/01/21 14:40:22;;;;;;;8.50;4.03;;;11.10;95.00;;;;;;4899015;29;20762;-72
2021/01/21 14:42:48;;;;;;;2.17;1.60;;;11.00;95.00;;;;;;4899264;29;20433;-70
2021/01/21 14:45:14;;;;;;;2.70;2.50;;;11.00;95.30;;;;;;4900524;29;20565;-71
2021/01/21 14:47:40;;;;;;;3.40;2.10;;;10.80;95.70;;;;;;4900441;29;20193;-71
2021/01/21 14:50:07;;;;;;;5.67;2.10;;;10.70;96.20;;;;;;4900163;29;20453;-70
2021/01/21 14:52:35;;;;;;;5.27;2.07;;;10.60;96.60;;;;;;4909292;29;20244;-72
2021/01/21 14:55:10;;;;;;;2.50;1.90;;;10.50;96.90;;;;;;4918990;29;20443;-73
2021/01/21 14:57:36;;;;;;;3.27;2.00;;;10.40;97.30;;;;;;4919201;29;20404;-71
2021/01/21 15:00:04;;;;;;;4.10;1.60;;;10.30;97.30;;;;;;4919036;29;20823;-72
2021/01/21 15:02:30;;;;;;;4.13;2.30;;;10.40;97.30;;;;;;4906547;29;20267;-73
2021/01/21 15:04:55;;;;;;;3.97;2.10;;;10.40;97.30;;;;;;4910375;29;20520;-71
2021/01/21 15:07:21;;;;;;;5.00;1.80;;;10.40;97.30;;;;;;4919208;29;20192;-72
2021/01/21 15:09:47;;;;;;;3.13;1.87;;;10.50;97.30;;;;;;4917650;29;20205;-72
2021/01/21 15:12:13;;;;;;;1.30;1.30;;;10.50;97.30;;;;;;4908972;29;20209;-71
2021/01/21 15:14:38;;;;;;;1.67;1.50;;;10.50;97.30;;;;;;4900044;29;20979;-70
2021/01/21 15:17:05;;;;;;;2.77;1.70;;;10.40;97.30;;;;;;4900070;29;20184;-71
2021/01/21 15:19:31;;;;;;;3.30;1.53;;;10.30;97.30;;;;;;4898819;29;20655;-71
2021/01/21 15:21:57;;;;;;;2.20;1.47;;;10.30;97.30;;;;;;4898434;29;20538;-72
2021/01/21 15:24:23;;;;;;;1.53;1.50;;;10.30;97.30;;;;;;4898843;29;20185;-71
2021/01/21 15:26:48;;;;;;;6.00;3.67;;;10.30;97.30;;;;;;4898477;29;20425;-71
2021/01/21 15:29:14;;;;;;;2.30;1.90;;;10.20;97.30;;;;;;4898426;29;20706;-71
2021/01/21 15:31:41;;;;;;;4.57;2.10;;;10.20;97.30;;;;;;4898261;29;20204;-73
2021/01/21 15:34:08;;;;;;;3.17;1.80;;;10.10;97.30;;;;;;4898566;29;20229;-74
2021/01/21 15:36:34;;;;;;;2.30;1.60;;;10.10;97.30;;;;;;4899090;29;20487;-73
2021/01/21 15:39:00;;;;;;;3.33;2.10;;;10.00;97.30;;;;;;4903945;29;20492;-71
2021/01/21 15:41:26;;;;;;;2.90;2.10;;;10.00;97.30;;;;;;4914643;29;20462;-71
2021/01/21 15:43:52;;;;;;;4.20;2.20;;;9.90;97.30;;;;;;4899623;29;20447;-71
2021/01/21 15:46:17;;;;;;;3.73;2.00;;;9.90;97.30;;;;;;4897120;29;20616;-71
2021/01/21 15:48:43;;;;;;;5.70;2.47;;;9.80;97.30;;;;;;4898863;29;20668;-70
2021/01/21 15:51:09;;;;;;;5.57;2.60;;;9.80;97.30;;;;;;4897604;29;20213;-72
2021/01/21 15:53:44;;;;;;;3.20;2.40;;;9.70;97.30;;;;;;4895709;29;20188;-73
2021/01/21 15:56:10;;;;;;;4.70;2.50;;;9.70;97.30;;;;;;4891940;29;20236;-72
2021/01/21 15:58:39;;;;;;;4.77;2.63;;;9.60;97.30;;;;;;4897817;29;20436;-72
2021/01/21 16:01:04;;;;;;;4.60;2.20;;;9.60;97.30;;;;;;4898381;29;20500;-71
2021/01/21 16:03:33;;;;;;;5.27;2.87;;;9.60;97.30;;;;;;4897341;29;20998;-71
2021/01/21 16:05:59;;;;;;;4.50;2.80;;;9.60;97.30;;;;;;4897685;29;20185;-71
2021/01/21 16:08:28;;;;;;;6.77;3.40;;;9.60;97.30;;;;;;4898909;29;20437;-72
2021/01/21 16:10:57;;;;;;;9.90;4.37;;;9.60;97.30;;;;;;4897064;29;21055;-71
2021/01/21 16:13:23;;;;;;;6.80;4.23;;;9.60;97.30;;;;;;4897501;29;20962;-72
2021/01/21 16:15:48;;;;;;;5.50;3.60;;;9.60;97.30;;;;;;4897364;29;20512;-71
2021/01/21 16:18:15;;;;;;;9.70;4.37;;;9.60;97.30;;;;;;4897938;29;20213;-72
2021/01/21 16:20:41;;;;;;;5.70;3.27;;;9.70;97.30;;;;;;4897070;29;20228;-72
2021/01/21 16:23:07;;;;;;;7.87;3.67;;;9.70;97.30;;;;;;4897311;29;20537;-71
2021/01/21 16:25:32;;;;;;;73.57;31.73;;;9.70;97.30;;;;;;4898463;29;20505;-72
2021/01/21 16:27:58;;;;;;;37.37;17.47;;;9.50;97.30;;;;;;4897575;29;20189;-71
2021/01/21 16:30:24;;;;;;;20.73;10.13;;;9.40;97.30;;;;;;4897210;29;20213;-71
2021/01/21 16:32:50;;;;;;;28.30;14.20;;;9.20;97.30;;;;;;4897030;29;20189;-71
2021/01/21 16:35:16;;;;;;;20.73;10.87;;;9.10;97.30;;;;;;4898416;29;20453;-71
2021/01/21 16:37:42;;;;;;;15.40;7.37;;;9.00;97.30;;;;;;4898320;29;20185;-71
2021/01/21 16:40:08;;;;;;;10.83;5.30;;;8.80;97.30;;;;;;4898069;29;20815;-72
2021/01/21 16:42:34;;;;;;;8.50;4.13;;;8.80;97.30;;;;;;4896624;29;20213;-72
2021/01/21 16:45:06;;;;;;;9.30;4.17;;;8.70;97.30;;;;;;4897320;29;20478;-71
2021/01/21 16:47:35;;;;;;;5.33;3.97;;;8.70;97.30;;;;;;4898524;29;20249;-71
2021/01/21 16:50:02;;;;;;;6.03;4.23;;;8.70;97.30;;;;;;4897112;29;20991;-71
2021/01/21 16:52:28;;;;;;;6.83;4.23;;;8.70;97.30;;;;;;4897704;29;20505;-71
2021/01/21 16:54:54;;;;;;;12.73;4.60;;;8.70;97.30;;;;;;4896823;29;20445;-72
2021/01/21 16:57:23;;;;;;;8.37;4.90;;;8.70;97.30;;;;;;4895738;29;20663;-71
2021/01/21 16:59:52;;;;;;;10.27;4.67;;;8.70;97.30;;;;;;4895822;29;20189;-71
2021/01/21 17:02:21;;;;;;;14.03;5.30;;;8.70;97.30;;;;;;4896796;29;20480;-71
2021/01/21 17:04:47;;;;;;;12.17;5.57;;;8.60;97.30;;;;;;4898113;29;20418;-71
2021/01/21 17:07:13;;;;;;;14.10;6.37;;;8.60;97.30;;;;;;4896820;29;20425;-72
2021/01/21 17:09:39;;;;;;;13.87;6.77;;;8.60;97.30;;;;;;4896399;29;21078;-71
2021/01/21 17:12:08;;;;;;;9.53;5.73;;;8.60;97.30;;;;;;4896359;29;20209;-71
2021/01/21 17:14:35;;;;;;;15.53;6.27;;;8.70;97.30;;;;;;4897070;29;20244;-71
2021/01/21 17:17:02;;;;;;;9.20;5.20;;;8.70;97.30;;;;;;4897813;29;20417;-71
2021/01/21 17:19:28;;;;;;;8.77;4.60;;;8.70;97.30;;;;;;4897937;29;20473;-72
2021/01/21 17:21:53;;;;;;;10.57;5.67;;;8.70;97.30;;;;;;4897351;29;20805;-71
2021/01/21 17:24:22;;;;;;;9.50;4.87;;;8.70;97.30;;;;;;4897561;29;20509;-71
2021/01/21 17:26:51;;;;;;;7.97;3.90;;;8.70;97.30;;;;;;4896411;29;20185;-71
2021/01/21 17:29:23;;;;;;;4.80;3.00;;;8.80;97.30;;;;;;4896628;29;20417;-71
2021/01/21 17:31:49;;;;;;;5.53;3.77;;;8.80;97.30;;;;;;4895988;29;20493;-71
2021/01/21 17:34:17;;;;;;;4.40;3.37;;;8.80;97.30;;;;;;4896516;29;20430;-72
2021/01/21 17:36:44;;;;;;;7.47;4.20;;;8.90;97.30;;;;;;4897711;29;20205;-71
2021/01/21 17:39:12;;;;;;;6.03;3.87;;;9.00;97.30;;;;;;4896410;29;20429;-71
2021/01/21 17:41:38;;;;;;;6.30;4.40;;;9.10;97.30;;;;;;4897196;29;20445;-71
2021/01/21 17:44:04;;;;;;;4.70;3.60;;;9.10;97.30;;;;;;4897534;29;20418;-72
2021/01/21 17:46:30;;;;;;;6.00;3.63;;;9.10;97.30;;;;;;4897358;29;20209;-72
2021/01/21 17:48:56;;;;;;;5.13;3.50;;;9.10;97.30;;;;;;4896131;29;21004;-72
2021/01/21 17:51:22;;;;;;;4.03;3.00;;;9.10;97.30;;;;;;4897290;29;20224;-72
2021/01/21 17:53:48;;;;;;;6.60;2.50;;;9.20;97.30;;;;;;4896130;29;20216;-70
2021/01/21 17:56:14;;;;;;;4.13;2.40;;;9.40;97.30;;;;;;4896373;29;20449;-71
2021/01/21 17:58:40;;;;;;;2.37;2.20;;;9.50;97.30;;;;;;4897041;29;20218;-71
2021/01/21 18:01:06;;;;;;;3.37;2.70;;;9.70;97.30;;;;;;4897092;29;20264;-71
2021/01/21 18:03:32;;;;;;;3.53;2.70;;;9.90;97.30;;;;;;4896236;29;20823;-71
2021/01/21 18:06:01;;;;;;;3.90;2.13;;;9.90;97.30;;;;;;4896355;29;20216;-71
2021/01/21 18:08:27;;;;;;;3.43;2.00;;;10.00;97.30;;;;;;4896168;29;20189;-71
2021/01/21 18:10:54;;;;;;;3.17;2.40;;;10.00;97.30;;;;;;4899336;29;21010;-71
2021/01/21 18:13:20;;;;;;;19.50;9.03;;;10.10;97.30;;;;;;4899435;29;20429;-71
2021/01/21 18:15:46;;;;;;;13.50;6.07;;;10.10;97.30;;;;;;4899916;29;20192;-71
2021/01/21 18:18:14;;;;;;;4.07;2.80;;;10.10;97.30;;;;;;4899832;29;20805;-72
2021/01/21 18:20:40;;;;;;;4.30;2.50;;;10.10;97.10;;;;;;4899620;29;20300;-71
2021/01/21 18:23:05;;;;;;;2.30;1.80;;;10.10;97.00;;;;;;4900597;29;21008;-71
2021/01/21 18:25:31;;;;;;;3.13;1.90;;;10.00;96.90;;;;;;4900892;29;20193;-71
2021/01/21 18:27:57;;;;;;;2.80;1.77;;;10.00;96.60;;;;;;4900676;29;20193;-70
2021/01/21 18:30:32;;;;;;;2.87;1.87;;;10.00;96.50;;;;;;4900917;29;20619;-71
2021/01/21 18:33:09;;;;;;;2.77;1.90;;;10.00;96.30;;;;;;4899250;29;20177;-71
2021/01/21 18:35:35;;;;;;;3.30;2.67;;;10.00;96.30;;;;;;4904582;29;20421;-71
2021/01/21 18:38:01;;;;;;;2.73;1.97;;;10.00;96.20;;;;;;4900258;29;20425;-71
2021/01/21 18:40:27;;;;;;;2.23;1.93;;;10.00;96.00;;;;;;4898669;29;20181;-71
2021/01/21 18:42:53;;;;;;;3.07;2.20;;;10.00;95.90;;;;;;4899344;29;20193;-71
2021/01/21 18:45:19;;;;;;;3.83;2.50;;;10.00;95.90;;;;;;4898723;29;20185;-72
2021/01/21 18:47:45;;;;;;;4.60;3.00;;;10.00;96.10;;;;;;4898498;29;20189;-72
2021/01/21 18:50:11;;;;;;;3.00;2.30;;;9.90;96.20;;;;;;4899958;29;20465;-72
2021/01/21 18:52:37;;;;;;;1.90;1.90;;;9.90;96.20;;;;;;4897916;29;20533;-72
2021/01/21 18:55:04;;;;;;;2.17;1.70;;;9.90;96.20;;;;;;4898442;29;20532;-72